Schedule Details

Flight Number: ASX104
Departure: Warszawa Chopina (EPWA) at 07:00Z
Arrival: London-Stansted (EGSS) at 09:30Z
Route: LOLSI T174 INDIG L980 SUI UL980 HLZ DCT GORLO M20 IDESI

Weather Information
EPWA 251930Z 06005KT 030V090 9999 -SN BKN027 M09/M15 Q1029 NOSIG
EGSS 251920Z AUTO 05009KT 9999 NCD M02/M07 Q1029

Schedule Frequency

Route Map